Terminal Aerodrome Forecast
Issued by NWS

Home | Current Version | Previous Version | Text Only | Print | Product List | Glossary On
Versions: 1 2 3 4 5 6 7 8 9 10 11 12 13 14 15 16 17 18 19 20 21 22 23 24 25 26 27
000
FTUS44 KFWD 312300
TAFFTW
TAF
KFTW 312326Z 0100/0124 15011KT 2SM RA BKN012 OVC028
     FM010300 17014KT 2SM -RA BR OVC007
     FM010800 19010KT 3SM BR VCSH SCT003 OVC007
     FM011100 21006KT 5SM BR SCT007 OVC014
     FM011400 30012KT P6SM OVC025
     FM011800 34020G30KT P6SM FEW035 SCT120=

USA.gov is the U.S. government's official web portal to all federal, state and local government web resources and services.